• Join FlightAware (Why Join?)
  • Login
  • US Flag 
Gobble Gobble! 
11:48PM EST


 

Airport Tracker/Info


-or-


 

Live Flight TrackerFlight Track Log ✈ EJM685 ✈ 25-Jun-2013 ✈ KTEB - KLAX

Flight Track Log - Related Links

Times and Time Zones

All times are in EDT time to prevent confusion due to time zone crossing. See the EJM685 flight status page for this flight to view local times or setup timezone preferences in your user account.

Time Position Orientation Groundspeed Altitude Reporting Facility
EDT Latitude Longitude Course Direction KTS MPH feet Rate Location/Type
10:43AM 40.8167 -74.0667 252° West 177 204 1,400  Level New York TRACON
10:44AM 40.8000 -74.1333 252° West 215 247 2,900 1,500 Climbing New York TRACON
10:45AM 40.7667 -74.2000 237° Southwest 263 303 4,400 1,680 Climbing New York TRACON
10:46AM 40.8167 -74.2833 308° West 276 318 6,300 2,280 Climbing New York TRACON
10:47AM 40.8667 -74.3500 315° West 280 322 9,200 2,640 Climbing New York TRACON
10:49AM 40.8178 -74.5467 252° West 321 369 14,000 2,520 Climbing New York Center
10:50AM 40.7844 -74.6792 252° West 347 399 16,600 2,640 Climbing New York Center
10:51AM 40.7508 -74.8114 251° West 377 434 19,300 2,400 Climbing New York Center
10:52AM 40.7197 -74.9300 251° West 382 440 21,400 2,160 Climbing New York Center
10:53AM 40.6789 -75.0808 250° West 396 456 23,700 2,040 Climbing New York Center
10:54AM 40.6175 -75.2136 239° Southwest 414 476 25,600 1,860 Climbing New York Center
10:55AM 40.5625 -75.3442 241° Southwest 440 506 27,500 1,920 Climbing New York Center
10:56AM 40.4967 -75.4869 239° Southwest 457 526 29,500 2,040 Climbing New York Center
10:57AM 40.4283 -75.6297 238° Southwest 462 532 31,600 1,980 Climbing New York Center
10:58AM 40.3547 -75.7906 239° Southwest 462 532 33,600 2,100 Climbing New York Center
10:59AM 40.2883 -75.9328 239° Southwest 462 532 35,900 2,400 Climbing New York Center
11:00AM 40.2214 -76.0747 238° Southwest 462 532 38,400 2,040 Climbing New York Center
11:01AM 40.1569 -76.2108 238° Southwest 455 524 40,000 1,260 Climbing New York Center
11:02AM 40.0992 -76.3311 238° Southwest 444 511 40,900 1,440 Climbing New York Center
11:03AM 40.0292 -76.4883 240° Southwest 449 517 43,000 960 Climbing New York Center
11:04AM 39.9708 -76.6136 239° Southwest 454 522 42,900  Descending New York Center
11:05AM 39.9036 -76.7514 238° Southwest 454 522 43,000  Climbing New York Center
11:06AM 39.8397 -76.8975 240° Southwest 459 528 43,000  Level New York Center
11:07AM 39.7742 -77.0350 238° Southwest 459 528 43,000  Level New York Center
11:08AM 39.6839 -77.2200 238° Southwest 461 531 43,000  Level Washington Center
11:09AM 39.6172 -77.3614 239° Southwest 461 531 43,000  Level Washington Center
11:10AM 39.5528 -77.4997 239° Southwest 461 531 43,000  Level Washington Center
11:11AM 39.4881 -77.6378 239° Southwest 466 536 43,000  Level Washington Center
11:12AM 39.4186 -77.7811 238° Southwest 466 536 43,000  Level Washington Center
11:13AM 39.3578 -77.9242 241° Southwest 466 536 43,000  Level Washington Center
11:14AM 39.2986 -78.0697 242° Southwest 461 531 43,000  Level Washington Center
11:15AM 39.2433 -78.2125 243° Southwest 456 525 43,000  Level Washington Center
11:16AM 39.1839 -78.3550 242° Southwest 451 519 43,000  Level Washington Center
11:17AM 39.1242 -78.5053 243° Southwest 451 519 43,000  Level Washington Center
11:18AM 39.0664 -78.6500 243° Southwest 456 525 43,000  Level Washington Center
11:19AM 39.0083 -78.7972 243° Southwest 461 531 43,000  Level Washington Center
11:20AM 38.9583 -78.9447 246° West 461 531 43,000  Level Washington Center
11:21AM 38.9206 -79.0975 252° West 456 525 43,000  Level Washington Center
11:22AM 38.8869 -79.2506 254° West 451 519 43,000  Level Washington Center
11:23AM 38.8508 -79.4089 254° West 451 519 43,000  Level Washington Center
11:24AM 38.8117 -79.5853 254° West 461 531 43,000  Level Washington Center
11:25AM 38.7778 -79.7247 253° West 467 537 43,000  Level Washington Center
11:27AM 38.7011 -80.0200 252° West 461 531 43,000  Level Indianapolis Center
11:28AM 38.6633 -80.1764 253° West 461 531 43,000  Level Indianapolis Center
11:29AM 38.6247 -80.3333 253° West 461 531 43,000  Level Indianapolis Center
11:30AM 38.5881 -80.4881 253° West 456 525 43,000 120 Level Indianapolis Center
11:31AM 38.5419 -80.6739 252° West 455 524 43,300 480 Climbing Indianapolis Center
11:32AM 38.5031 -80.8275 252° West 452 520 44,100 600 Climbing Indianapolis Center
11:33AM 38.4631 -80.9825 252° West 456 525 44,600 420 Climbing Indianapolis Center
11:34AM 38.4225 -81.1403 252° West 462 532 45,000 180 Climbing Indianapolis Center
11:35AM 38.3822 -81.2997 252° West 466 536 45,000  Level Indianapolis Center
11:36AM 38.3406 -81.4614 252° West 473 544 45,000  Level Indianapolis Center
11:38AM 38.3003 -81.6200 252° West 469 540 45,000  Level Indianapolis Center
11:39AM 38.2586 -81.7794 252° West 471 542 45,000  Level Indianapolis Center
11:40AM 38.2169 -81.9383 252° West 472 543 45,000  Level Indianapolis Center
11:41AM 38.1750 -82.0994 252° West 476 548 45,000  Level Indianapolis Center
11:42AM 38.1250 -82.2894 252° West 471 542 45,000  Level Indianapolis Center
11:43AM 38.0825 -82.4472 251° West 471 542 45,000  Level Indianapolis Center
11:44AM 38.0411 -82.6061 252° West 475 547 45,000  Level Indianapolis Center
11:45AM 37.9983 -82.7625 251° West 471 542 45,000  Level Indianapolis Center
11:46AM 37.9553 -82.9211 251° West 476 548 45,000  Level Indianapolis Center
11:47AM 37.9128 -83.0792 251° West 476 548 45,000  Level Indianapolis Center
11:48AM 37.8619 -83.2617 251° West 472 543 45,000  Level Indianapolis Center
11:49AM 37.8189 -83.4153 251° West 464 534 45,000  Level Indianapolis Center
11:50AM 37.7767 -83.5692 251° West 464 534 45,000  Level Indianapolis Center
11:51AM 37.7333 -83.7217 250° West 463 533 45,000  Level Indianapolis Center
11:52AM 37.6897 -83.8744 250° West 463 533 45,000  Level Indianapolis Center
11:53AM 37.6386 -84.0553 250° West 469 540 45,000  Level Indianapolis Center
11:54AM 37.5942 -84.2094 250° West 469 540 45,000 240 Level Indianapolis Center
11:55AM 37.5508 -84.3647 251° West 467 537 45,500 480 Climbing Indianapolis Center
11:56AM 37.5058 -84.5181 250° West 468 539 46,000 240 Climbing Indianapolis Center
11:57AM 37.4614 -84.6736 250° West 471 542 46,000  Level Indianapolis Center
11:58AM 37.4158 -84.8267 249° West 467 537 46,000  Level Indianapolis Center
11:59AM 37.3700 -84.9808 250° West 469 540 46,000  Level Indianapolis Center
12:00PM 37.3172 -85.1628 250° West 474 545 46,000  Level Indianapolis Center
12:01PM 37.2711 -85.3167 249° West 471 542 46,000  Level Indianapolis Center
12:02PM 37.2244 -85.4694 249° West 469 540 46,000  Level Indianapolis Center
12:03PM 37.1819 -85.6108 249° West 471 542 46,000  Level Indianapolis Center
12:04PM 37.1283 -85.7881 249° West 464 534 46,000  Level Indianapolis Center
12:05PM 37.0828 -85.9394 249° West 462 532 46,000  Level Indianapolis Center
12:06PM 37.0358 -86.0922 249° West 467 537 46,000  Level Indianapolis Center
12:07PM 36.9894 -86.2433 249° West 463 533 46,000  Level Indianapolis Center
12:08PM 36.9431 -86.3961 249° West 465 535 46,000  Level Indianapolis Center
12:09PM 36.9219 -86.4981 256° West 464 534 46,000  Level Memphis Center
12:10PM 36.8936 -86.6681 258° West 464 534 46,000  Level Memphis Center
12:11PM 36.8669 -86.8275 258° West 464 534 46,000  Level Memphis Center
12:12PM 36.8422 -86.9867 259° West 470 541 46,000  Level Memphis Center
12:13PM 36.8172 -87.1433 259° West 470 541 46,000  Level Memphis Center
12:14PM 36.7900 -87.2997 258° West 470 541 46,000  Level Memphis Center
12:15PM 36.7625 -87.4614 258° West 470 541 46,000  Level Memphis Center
12:16PM 36.7369 -87.6178 259° West 470 541 46,000  Level Memphis Center
12:17PM 36.7092 -87.7767 258° West 470 541 46,000  Level Memphis Center
12:18PM 36.6811 -87.9328 257° West 470 541 46,000  Level Memphis Center
12:19PM 36.6528 -88.0914 257° West 471 542 46,000  Level Memphis Center
12:20PM 36.6300 -88.2239 258° West 459 528 46,000  Level Memphis Center
12:21PM 36.6036 -88.3822 258° West 459 528 46,000  Level Memphis Center
12:22PM 36.5744 -88.5353 257° West 459 528 46,000  Level Memphis Center
12:23PM 36.5475 -88.6883 258° West 459 528 46,000  Level Memphis Center
12:24PM 36.5183 -88.8414 257° West 454 522 46,000  Level Memphis Center
12:25PM 36.4908 -88.9942 257° West 454 522 46,000  Level Memphis Center
12:26PM 36.4633 -89.1442 257° West 448 516 46,000  Level Memphis Center
12:27PM 36.4356 -89.3044 258° West 454 522 46,000  Level Memphis Center
12:28PM 36.4014 -89.4675 255° West 474 545 46,000  Level Memphis Center
12:29PM 36.3711 -89.6197 256° West 484 557 46,000  Level Memphis Center
12:30PM 36.3428 -89.7694 257° West 465 535 46,000  Level Memphis Center
12:31PM 36.3142 -89.9192 257° West 460 529 46,000  Level Memphis Center
12:32PM 36.2833 -90.0711 256° West 454 522 46,000  Level Memphis Center
12:33PM 36.2544 -90.2206 257° West 454 522 46,000  Level Memphis Center
12:34PM 36.2253 -90.3725 257° West 454 522 46,000  Level Memphis Center
12:35PM 36.1939 -90.5242 256° West 454 522 46,000  Level Memphis Center
12:36PM 36.1644 -90.6758 257° West 454 522 46,000  Level Memphis Center
12:37PM 36.1328 -90.8272 256° West 454 522 46,000  Level Memphis Center
12:38PM 36.1028 -90.9786 256° West 454 522 46,000  Level Memphis Center
12:39PM 36.0686 -91.1300 254° West 454 522 46,000  Level Memphis Center
12:40PM 36.0406 -91.2811 257° West 454 522 46,000  Level Memphis Center
12:41PM 36.0081 -91.4269 255° West 449 517 46,000  Level Memphis Center
12:42PM 35.9797 -91.5806 257° West 449 517 46,000  Level Memphis Center
12:43PM 35.9425 -91.7467 255° West 449 517 46,000  Level Memphis Center
12:44PM 35.9200 -91.8744 258° West 449 517 46,000  Level Memphis Center
12:45PM 35.8889 -92.0250 256° West 449 517 46,000  Level Memphis Center
12:46PM 35.8556 -92.1756 255° West 449 517 46,000  Level Memphis Center
12:47PM 35.8242 -92.3258 256° West 449 517 46,000  Level Memphis Center
12:48PM 35.7925 -92.4786 256° West 455 524 46,000  Level Memphis Center
12:49PM 35.7583 -92.6339 255° West 455 524 46,000  Level Memphis Center
12:50PM 35.7264 -92.7839 255° West 455 524 46,000  Level Memphis Center
12:51PM 35.6942 -92.9389 256° West 461 531 46,000  Level Memphis Center
12:52PM 35.6617 -93.0936 256° West 461 531 46,000  Level Memphis Center
12:53PM 35.6247 -93.2483 254° West 475 547 46,000  Level Memphis Center
12:54PM 35.5875 -93.4128 254° West 457 526 46,000  Level Memphis Center
12:55PM 35.5525 -93.5622 254° West 451 519 46,000  Level Memphis Center
12:56PM 35.5192 -93.7164 255° West 451 519 46,000  Level Memphis Center
12:57PM 35.4836 -93.8656 254° West 451 519 46,000  Level Memphis Center
12:58PM 35.4461 -94.0117 253° West 451 519 46,000  Level Memphis Center
12:59PM 35.4167 -94.1608 256° West 451 519 46,000  Level Memphis Center
01:00PM 35.3889 -94.3122 257° West 451 519 46,000  Level Memphis Center
01:02PM 35.3892 -94.6814 270° West 445 512 46,000  Level Fort Worth Center
01:03PM 35.3881 -94.8342 270° West 450 518 46,000  Level Fort Worth Center
01:04PM 35.3892 -94.9894 271° West 456 525 46,000  Level Fort Worth Center
01:05PM 35.3878 -95.1447 269° West 461 531 46,000  Level Fort Worth Center
01:06PM 35.3883 -95.3000 270° West 461 531 46,000  Level Fort Worth Center
01:07PM 35.3867 -95.4531 269° West 456 525 46,000  Level Fort Worth Center
01:08PM 35.3869 -95.6108 270° West 456 525 46,000  Level Fort Worth Center
01:09PM 35.3850 -95.7636 269° West 456 525 46,000  Level Fort Worth Center
01:10PM 35.3825 -95.8911 269° West 449 517 46,000  Level Fort Worth Center
01:11PM 35.3822 -96.0436 270° West 444 511 46,000  Level Fort Worth Center
01:12PM 35.3794 -96.1967 269° West 444 511 46,000  Level Fort Worth Center
01:13PM 35.3767 -96.3519 269° West 444 511 46,000  Level Fort Worth Center
01:14PM 35.3758 -96.5047 270° West 449 517 46,000 240 Level Fort Worth Center
01:15PM 35.3728 -96.6575 269° West 454 522 46,500 480 Climbing Fort Worth Center
01:16PM 35.3714 -96.8103 269° West 454 522 47,000 240 Climbing Fort Worth Center
01:17PM 35.3678 -96.9606 268° West 454 522 47,000  Level Fort Worth Center
01:18PM 35.3664 -97.1158 269° West 459 528 47,000  Level Fort Worth Center
01:19PM 35.3622 -97.2761 268° West 466 536 47,000  Level Fort Worth Center
01:20PM 35.3644 -97.4289 271° West 461 531 47,000  Level Fort Worth Center
01:21PM 35.3561 -97.6122 267° West 473 544 47,000  Level Fort Worth Center
01:22PM 35.3556 -97.7622 270° West 465 535 47,000  Level Fort Worth Center
01:23PM 35.3531 -97.9125 269° West 453 521 47,000  Level Fort Worth Center
01:24PM 35.3503 -98.0625 269° West 453 521 47,000  Level Fort Worth Center
01:25PM 35.3472 -98.2153 269° West 448 516 47,000  Level Fort Worth Center
01:26PM 35.3464 -98.3656 270° West 448 516 47,000  Level Fort Worth Center
01:27PM 35.3408 -98.5078 267° West 438 504 47,000  Level Fort Worth Center
01:28PM 35.3375 -98.6581 268° West 433 498 47,000  Level Fort Worth Center
01:29PM 35.3358 -98.8056 269° West 438 504 47,000  Level Fort Worth Center
01:30PM 35.3319 -98.9581 268° West 443 510 47,000  Level Fort Worth Center
01:31PM 35.3281 -99.1081 268° West 443 510 47,000  Level Fort Worth Center
01:32PM 35.3236 -99.2583 268° West 443 510 47,000  Level Fort Worth Center
01:33PM 35.3214 -99.4083 269° West 443 510 47,000  Level Fort Worth Center
01:35PM 35.3169 -99.5581 268° West 442 509 47,000  Level Albuquerque Center
01:36PM 35.3117 -99.7106 268° West 445 512 47,000  Level Albuquerque Center
01:37PM 35.3075 -99.8625 268° West 444 511 47,000  Level Albuquerque Center
01:38PM 35.3042 -100.0142 269° West 444 511 47,000  Level Albuquerque Center
01:39PM 35.2983 -100.1636 267° West 440 506 47,000  Level Albuquerque Center
01:40PM 35.2936 -100.3147 268° West 442 509 47,000  Level Albuquerque Center
01:41PM 35.2858 -100.4953 267° West 442 509 47,000  Level Albuquerque Center
01:42PM 35.2803 -100.6467 267° West 444 511 47,000  Level Albuquerque Center
01:43PM 35.2744 -100.7989 267° West 444 511 47,000  Level Albuquerque Center
01:44PM 35.2683 -100.9489 267° West 444 511 47,000  Level Albuquerque Center
01:45PM 35.2619 -101.0981 267° West 442 509 47,000  Level Albuquerque Center
01:46PM 35.2561 -101.2492 267° West 444 511 47,000  Level Albuquerque Center
01:47PM 35.2503 -101.4067 267° West 453 521 47,000  Level Albuquerque Center
01:48PM 35.2436 -101.5886 267° West 447 514 47,000  Level Albuquerque Center
01:49PM 35.2331 -101.7342 265° West 447 514 47,000  Level Albuquerque Center
01:50PM 35.2314 -101.8897 269° West 452 520 47,000  Level Albuquerque Center
01:51PM 35.2272 -102.0581 268° West 451 519 47,000  Level Albuquerque Center
01:52PM 35.2236 -102.2100 268° West 449 517 47,000  Level Albuquerque Center
01:53PM 35.2203 -102.3628 269° West 451 519 47,000  Level Albuquerque Center
01:54PM 35.2164 -102.5147 268° West 448 516 47,000  Level Albuquerque Center
01:55PM 35.2125 -102.6675 268° West 450 518 47,000  Level Albuquerque Center
01:56PM 35.2078 -102.8522 268° West 454 522 47,000  Level Albuquerque Center
01:57PM 35.2033 -102.9947 268° West 452 520 47,000  Level Albuquerque Center
01:58PM 35.1989 -103.1508 268° West 454 522 47,000  Level Albuquerque Center
01:59PM 35.1928 -103.3308 268° West 452 520 47,000  Level Albuquerque Center
02:00PM 35.1878 -103.4844 268° West 450 518 47,000  Level Albuquerque Center
02:01PM 35.1822 -103.6375 268° West 448 516 47,000  Level Albuquerque Center
02:02PM 35.1769 -103.7878 268° West 441 507 47,000  Level Albuquerque Center
02:03PM 35.1722 -103.9458 268° West 444 511 47,000  Level Albuquerque Center
02:05PM 35.1675 -104.0975 268° West 447 514 47,000  Level Albuquerque Center
02:06PM 35.1625 -104.2469 268° West 443 510 47,000  Level Albuquerque Center
02:07PM 35.1572 -104.3931 268° West 436 502 47,000  Level Albuquerque Center
02:08PM 35.1511 -104.5389 267° West 432 497 47,000  Level Albuquerque Center
02:09PM 35.1433 -104.7025 267° West 440 506 47,000  Level Albuquerque Center
02:10PM 35.1378 -104.8544 267° West 443 510 47,000  Level Albuquerque Center
02:11PM 35.1311 -105.0300 267° West 441 507 47,000  Level Albuquerque Center
02:12PM 35.1244 -105.1786 267° West 436 502 47,000  Level Albuquerque Center
02:13PM 35.1183 -105.3269 267° West 435 501 47,000  Level Albuquerque Center
02:14PM 35.1125 -105.4772 267° West 437 503 47,000  Level Albuquerque Center
02:15PM 35.1050 -105.6247 266° West 435 501 47,000  Level Albuquerque Center
02:16PM 35.0983 -105.7708 267° West 430 495 47,000  Level Albuquerque Center
02:17PM 35.0906 -105.9169 266° West 424 488 47,000  Level Albuquerque Center
02:18PM 35.0861 -106.0622 268° West 426 490 47,000  Level Albuquerque Center
02:19PM 35.0769 -106.2064 266° West 426 490 47,000  Level Albuquerque Center
02:20PM 35.0681 -106.3803 266° West 434 499 47,000  Level Albuquerque Center
02:21PM 35.0594 -106.5319 266° West 437 503 47,000 -60 Level Albuquerque Center
02:22PM 35.0508 -106.6669 266° West 439 505 46,900  Descending Albuquerque Center
02:23PM 35.0436 -106.8144 267° West 438 504 47,000  Climbing Albuquerque Center
02:24PM 35.0400 -106.9914 269° West 432 497 47,000  Level Albuquerque Center
02:25PM 35.0364 -107.1372 268° West 431 496 47,000  Level Albuquerque Center
02:26PM 35.0317 -107.2833 268° West 438 504 47,000  Level Albuquerque Center
02:27PM 35.0278 -107.4311 268° West 440 506 47,000  Level Albuquerque Center
02:28PM 35.0233 -107.5831 268° West 450 518 47,000  Level Albuquerque Center
02:29PM 35.0181 -107.7342 268° West 449 517 47,000  Level Albuquerque Center
02:30PM 35.0131 -107.8853 268° West 447 514 47,000  Level Albuquerque Center
02:31PM 35.0069 -108.0372 267° West 448 516 47,000  Level Albuquerque Center
02:32PM 35.0025 -108.2206 268° West 451 519 47,000  Level Albuquerque Center
02:33PM 34.9978 -108.3706 268° West 446 513 47,100  Climbing Albuquerque Center
02:34PM 34.9914 -108.5231 267° West 449 517 47,000 -60 Descending Albuquerque Center
02:35PM 34.9864 -108.6783 268° West 455 524 47,000  Level Albuquerque Center
02:36PM 34.9792 -108.8325 267° West 457 526 47,000  Level Albuquerque Center
02:37PM 34.9728 -108.9872 267° West 457 526 47,000  Level Albuquerque Center
02:39PM 34.9672 -109.1439 268° West 461 531 47,000  Level Albuquerque Center
02:40PM 34.9525 -109.3311 265° West 463 533 47,000  Level Albuquerque Center
02:41PM 34.9428 -109.4847 266° West 462 532 47,000  Level Albuquerque Center
02:42PM 34.9331 -109.6347 266° West 454 522 47,000  Level Albuquerque Center
02:43PM 34.9225 -109.7867 265° West 453 521 47,000  Level Albuquerque Center
02:44PM 34.9117 -109.9367 265° West 453 521 47,000  Level Albuquerque Center
02:45PM 34.8986 -110.1150 265° West 450 518 47,000  Level Albuquerque Center
02:46PM 34.8872 -110.2456 264° West 451 519 47,000  Level Albuquerque Center
02:47PM 34.8736 -110.4272 265° West 451 519 47,000  Level Albuquerque Center
02:48PM 34.8569 -110.5778 262° West 450 518 47,000  Level Albuquerque Center
02:49PM 34.8389 -110.7253 262° West 444 511 47,000  Level Albuquerque Center
02:51PM 34.8064 -110.9908 262° West 444 511 47,000  Level Los Angeles Center
02:52PM 34.7839 -111.1661 261° West 441 507 47,000  Level Albuquerque Center
02:53PM 34.7650 -111.3128 261° West 441 507 47,000  Level Albuquerque Center
02:54PM 34.7422 -111.4881 261° West 440 506 47,000  Level Albuquerque Center
02:55PM 34.7236 -111.6353 261° West 443 510 47,000  Level Albuquerque Center
02:56PM 34.7044 -111.7817 261° West 443 510 47,000  Level Albuquerque Center
02:57PM 34.6850 -111.9281 261° West 442 509 47,000  Level Albuquerque Center
02:58PM 34.6661 -112.0758 261° West 445 512 47,000  Level Albuquerque Center
02:59PM 34.6453 -112.2244 260° West 448 516 47,000  Level Albuquerque Center
03:00PM 34.6219 -112.3956 261° West 448 516 47,000  Level Albuquerque Center
03:01PM 34.6019 -112.5433 261° West 446 513 47,000  Level Albuquerque Center
03:02PM 34.5814 -112.6886 260° West 441 507 47,000  Level Albuquerque Center
03:03PM 34.5611 -112.8342 260° West 439 505 47,000  Level Albuquerque Center
03:04PM 34.5414 -112.9800 261° West 439 505 47,000  Level Albuquerque Center
03:05PM 34.5161 -113.1572 260° West 443 510 47,000  Level Albuquerque Center
03:06PM 34.4947 -113.3067 260° West 449 517 47,000  Level Albuquerque Center
03:07PM 34.4719 -113.4511 259° West 440 506 47,000  Level Albuquerque Center
03:08PM 34.4514 -113.6008 261° West 445 512 47,000  Level Albuquerque Center
03:09PM 34.4289 -113.7450 259° West 444 511 47,000  Level Albuquerque Center
03:10PM 34.4092 -113.8886 261° West 440 506 47,000  Level Albuquerque Center
03:11PM 34.3803 -114.0683 259° West 444 511 47,000  Level Albuquerque Center
03:12PM 34.3581 -114.2156 260° West 445 512 47,000 -120 Level Albuquerque Center
03:14PM 34.3369 -114.3633 260° West 446 513 46,800 -600 Descending Albuquerque Center
03:14PM 34.3172 -114.4944 260° West 445 512 45,900 -1,020 Descending Los Angeles Center
03:15PM 34.2953 -114.6400 260° West 442 509 44,900 -1,020 Descending Los Angeles Center
03:16PM 34.2731 -114.7853 260° West 441 507 43,900 -1,020 Descending Los Angeles Center
03:17PM 34.2497 -114.9308 259° West 444 511 42,900 -1,020 Descending Los Angeles Center
03:19PM 34.2258 -115.0806 259° West 453 521 41,900 -1,080 Descending Los Angeles Center
03:20PM 34.1967 -115.2583 259° West 453 521 40,700 -1,080 Descending Los Angeles Center
03:21PM 34.1733 -115.4056 259° West 449 517 39,700 -1,080 Descending Los Angeles Center
03:22PM 34.1486 -115.5536 259° West 452 520 38,500 -1,680 Descending Los Angeles Center
03:23PM 34.1250 -115.7017 259° West 453 521 36,300 -2,100 Descending Los Angeles Center
03:24PM 34.1008 -115.8539 259° West 461 531 34,200 -2,280 Descending Los Angeles Center
03:25PM 34.0733 -116.0375 260° West 466 536 31,700 -2,280 Descending Los Angeles Center
03:26PM 34.0514 -116.1881 260° West 460 529 29,600 -2,040 Descending Los Angeles Center
03:27PM 34.0283 -116.3344 259° West 453 521 27,600 -1,920 Descending Los Angeles Center
03:28PM 34.0072 -116.4781 260° West 447 514 25,700 -1,860 Descending Los Angeles Center
03:29PM 33.9947 -116.6183 264° West 436 502 23,800 -1,860 Descending Los Angeles Center
03:30PM 33.9842 -116.7539 265° West 424 488 21,900 -2,040 Descending Los Angeles Center
03:31PM 33.9711 -116.9131 264° West 413 475 19,700 -2,040 Descending Los Angeles Center
03:32PM 33.9667 -117.0000 266° West 388 447 18,600 -1,680 Descending Southern California TRACON
03:33PM 33.9500 -117.1167 260° West 357 411 17,000 -1,260 Descending Southern California TRACON
03:34PM 33.9500 -117.2333 270° West 341 392 16,100 -900 Descending Southern California TRACON
03:35PM 33.9333 -117.3333 259° West 305 351 15,200 -1,140 Descending Southern California TRACON
03:36PM 33.9500 -117.4333 281° West 299 344 13,900 -1,380 Descending Southern California TRACON
03:37PM 33.9833 -117.5167 296° West 294 338 12,500 -900 Descending Southern California TRACON
03:38PM 34.0167 -117.6167 292° West 355 409 12,100 -780 Descending Southern California TRACON
03:39PM 34.0000 -117.7167 259° West 275 316 11,000 -1,560 Descending Southern California TRACON
03:40PM 34.0000 -117.8000 270° West 279 321 9,000 -1,920 Descending Southern California TRACON
03:41PM 33.9833 -117.9000 259° West 279 321 7,200 -960 Descending Southern California TRACON
03:42PM 33.9833 -117.9833 270° West 265 305 7,100 -540 Descending Southern California TRACON
03:43PM 33.9667 -118.0667 256° West 253 291 6,200 -1,260 Descending Southern California TRACON
03:43PM 33.9631 -118.1353 266° West 249 287 4,900 -1,800 Descending Los Angeles Center
03:44PM 33.9547 -118.2128 263° West 232 267 3,100 -1,440 Descending Los Angeles Center
03:45PM 33.9481 -118.2761 263° West 190 219 2,000 -900 Descending Los Angeles Center
03:47PM 33.9428 -118.3317 263° West 167 192 1,100 -780 Descending Los Angeles Center
03:48PM 33.9383 -118.3772 263° West 114 131 300 -780 Descending Los Angeles Center
03:50PM 33.9333 -118.4000 270° West  Level FlightAware Approximate